sensor_id;sensor_type;location;lat;lon;timestamp;P1;durP1;ratioP1;P2;durP2;ratioP2
59607;SDS011;45426;44.726;10.390;2023-07-13T00:00:36;17.58;;;4.00;;
59607;SDS011;45426;44.726;10.390;2023-07-13T00:03:02;11.80;;;3.53;;
59607;SDS011;45426;44.726;10.390;2023-07-13T00:05:29;14.52;;;3.88;;
59607;SDS011;45426;44.726;10.390;2023-07-13T00:07:55;11.77;;;3.95;;
59607;SDS011;45426;44.726;10.390;2023-07-13T00:10:23;16.15;;;4.47;;
59607;SDS011;45426;44.726;10.390;2023-07-13T00:12:51;9.10;;;3.55;;
59607;SDS011;45426;44.726;10.390;2023-07-13T00:15:21;8.90;;;3.05;;
59607;SDS011;45426;44.726;10.390;2023-07-13T00:17:49;11.65;;;2.90;;
59607;SDS011;45426;44.726;10.390;2023-07-13T00:20:16;9.40;;;2.88;;
59607;SDS011;45426;44.726;10.390;2023-07-13T00:22:42;7.05;;;2.50;;
59607;SDS011;45426;44.726;10.390;2023-07-13T00:25:09;10.55;;;2.55;;
59607;SDS011;45426;44.726;10.390;2023-07-13T00:27:38;7.75;;;2.90;;
59607;SDS011;45426;44.726;10.390;2023-07-13T00:30:14;8.10;;;2.60;;
59607;SDS011;45426;44.726;10.390;2023-07-13T00:32:40;10.25;;;2.20;;
59607;SDS011;45426;44.726;10.390;2023-07-13T00:35:08;5.60;;;2.40;;
59607;SDS011;45426;44.726;10.390;2023-07-13T00:37:36;9.15;;;2.53;;
59607;SDS011;45426;44.726;10.390;2023-07-13T00:40:05;9.40;;;2.75;;
59607;SDS011;45426;44.726;10.390;2023-07-13T00:42:31;6.40;;;2.00;;
59607;SDS011;45426;44.726;10.390;2023-07-13T00:45:04;7.28;;;2.25;;
59607;SDS011;45426;44.726;10.390;2023-07-13T00:47:45;8.23;;;2.88;;
59607;SDS011;45426;44.726;10.390;2023-07-13T00:50:12;6.70;;;1.92;;
59607;SDS011;45426;44.726;10.390;2023-07-13T00:52:41;6.35;;;2.45;;
59607;SDS011;45426;44.726;10.390;2023-07-13T00:55:10;7.15;;;2.30;;
59607;SDS011;45426;44.726;10.390;2023-07-13T00:57:37;9.98;;;2.47;;
59607;SDS011;45426;44.726;10.390;2023-07-13T01:00:06;8.48;;;2.53;;
59607;SDS011;45426;44.726;10.390;2023-07-13T01:02:35;8.73;;;2.45;;
59607;SDS011;45426;44.726;10.390;2023-07-13T01:05:08;6.95;;;2.47;;
59607;SDS011;45426;44.726;10.390;2023-07-13T01:07:35;6.05;;;2.30;;
59607;SDS011;45426;44.726;10.390;2023-07-13T01:10:01;6.82;;;2.30;;
59607;SDS011;45426;44.726;10.390;2023-07-13T01:12:28;7.65;;;2.10;;
59607;SDS011;45426;44.726;10.390;2023-07-13T01:15:00;7.25;;;2.20;;
59607;SDS011;45426;44.726;10.390;2023-07-13T01:17:28;5.85;;;2.30;;
59607;SDS011;45426;44.726;10.390;2023-07-13T01:19:54;7.70;;;2.30;;
59607;SDS011;45426;44.726;10.390;2023-07-13T01:22:20;4.78;;;2.13;;
59607;SDS011;45426;44.726;10.390;2023-07-13T01:24:51;8.60;;;2.30;;
59607;SDS011;45426;44.726;10.390;2023-07-13T01:27:21;13.05;;;2.35;;
59607;SDS011;45426;44.726;10.390;2023-07-13T01:29:50;5.32;;;2.15;;
59607;SDS011;45426;44.726;10.390;2023-07-13T01:32:22;7.97;;;2.30;;
59607;SDS011;45426;44.726;10.390;2023-07-13T01:34:51;5.00;;;2.40;;
59607;SDS011;45426;44.726;10.390;2023-07-13T01:37:19;5.65;;;2.25;;
59607;SDS011;45426;44.726;10.390;2023-07-13T01:39:45;9.52;;;2.47;;
59607;SDS011;45426;44.726;10.390;2023-07-13T01:42:11;7.20;;;2.25;;
59607;SDS011;45426;44.726;10.390;2023-07-13T01:44:37;7.65;;;2.03;;
59607;SDS011;45426;44.726;10.390;2023-07-13T01:47:03;8.60;;;2.50;;
59607;SDS011;45426;44.726;10.390;2023-07-13T01:49:29;8.95;;;2.20;;
59607;SDS011;45426;44.726;10.390;2023-07-13T01:51:54;9.02;;;2.17;;
59607;SDS011;45426;44.726;10.390;2023-07-13T01:54:20;7.30;;;2.47;;
59607;SDS011;45426;44.726;10.390;2023-07-13T01:56:45;6.30;;;2.50;;
59607;SDS011;45426;44.726;10.390;2023-07-13T01:59:11;7.32;;;3.05;;
59607;SDS011;45426;44.726;10.390;2023-07-13T02:01:36;5.95;;;2.70;;
59607;SDS011;45426;44.726;10.390;2023-07-13T02:04:02;6.93;;;2.60;;
59607;SDS011;45426;44.726;10.390;2023-07-13T02:06:30;9.18;;;2.60;;
59607;SDS011;45426;44.726;10.390;2023-07-13T02:08:55;7.07;;;2.50;;
59607;SDS011;45426;44.726;10.390;2023-07-13T02:11:24;7.40;;;2.75;;
59607;SDS011;45426;44.726;10.390;2023-07-13T02:13:59;4.90;;;2.78;;
59607;SDS011;45426;44.726;10.390;2023-07-13T02:16:32;8.02;;;2.75;;
59607;SDS011;45426;44.726;10.390;2023-07-13T02:19:00;9.23;;;2.80;;
59607;SDS011;45426;44.726;10.390;2023-07-13T02:21:26;6.05;;;2.60;;
59607;SDS011;45426;44.726;10.390;2023-07-13T02:23:51;8.90;;;2.60;;
59607;SDS011;45426;44.726;10.390;2023-07-13T02:26:17;6.38;;;2.30;;
59607;SDS011;45426;44.726;10.390;2023-07-13T02:28:43;5.45;;;2.63;;
59607;SDS011;45426;44.726;10.390;2023-07-13T02:31:10;7.78;;;2.75;;
59607;SDS011;45426;44.726;10.390;2023-07-13T02:33:37;9.38;;;2.63;;
59607;SDS011;45426;44.726;10.390;2023-07-13T02:36:03;5.88;;;2.47;;
59607;SDS011;45426;44.726;10.390;2023-07-13T02:38:30;6.50;;;2.40;;
59607;SDS011;45426;44.726;10.390;2023-07-13T02:40:58;7.82;;;2.50;;
59607;SDS011;45426;44.726;10.390;2023-07-13T02:43:25;7.10;;;3.28;;
59607;SDS011;45426;44.726;10.390;2023-07-13T02:45:50;8.98;;;2.67;;
59607;SDS011;45426;44.726;10.390;2023-07-13T02:48:16;7.57;;;2.30;;
59607;SDS011;45426;44.726;10.390;2023-07-13T02:50:44;10.80;;;2.38;;
59607;SDS011;45426;44.726;10.390;2023-07-13T02:53:10;7.68;;;2.53;;
59607;SDS011;45426;44.726;10.390;2023-07-13T02:55:36;8.60;;;2.45;;
59607;SDS011;45426;44.726;10.390;2023-07-13T02:58:02;8.32;;;2.45;;
59607;SDS011;45426;44.726;10.390;2023-07-13T03:00:27;7.22;;;2.53;;
59607;SDS011;45426;44.726;10.390;2023-07-13T03:02:53;7.20;;;2.85;;
59607;SDS011;45426;44.726;10.390;2023-07-13T03:05:22;8.10;;;3.00;;
59607;SDS011;45426;44.726;10.390;2023-07-13T03:07:47;7.95;;;2.60;;
59607;SDS011;45426;44.726;10.390;2023-07-13T03:10:13;9.65;;;3.17;;
59607;SDS011;45426;44.726;10.390;2023-07-13T03:12:41;8.68;;;2.58;;
59607;SDS011;45426;44.726;10.390;2023-07-13T03:15:07;5.43;;;2.40;;
59607;SDS011;45426;44.726;10.390;2023-07-13T03:17:32;4.97;;;2.60;;
59607;SDS011;45426;44.726;10.390;2023-07-13T03:19:58;8.15;;;2.90;;
59607;SDS011;45426;44.726;10.390;2023-07-13T03:22:23;7.65;;;2.60;;
59607;SDS011;45426;44.726;10.390;2023-07-13T03:24:49;8.65;;;3.30;;
59607;SDS011;45426;44.726;10.390;2023-07-13T03:27:17;5.68;;;3.10;;
59607;SDS011;45426;44.726;10.390;2023-07-13T03:29:43;9.27;;;3.55;;
59607;SDS011;45426;44.726;10.390;2023-07-13T03:32:09;8.65;;;3.10;;
59607;SDS011;45426;44.726;10.390;2023-07-13T03:34:35;8.75;;;3.50;;
59607;SDS011;45426;44.726;10.390;2023-07-13T03:37:00;6.90;;;3.17;;
59607;SDS011;45426;44.726;10.390;2023-07-13T03:39:26;10.25;;;3.28;;
59607;SDS011;45426;44.726;10.390;2023-07-13T03:41:51;10.65;;;3.60;;
59607;SDS011;45426;44.726;10.390;2023-07-13T03:44:19;8.43;;;3.15;;
59607;SDS011;45426;44.726;10.390;2023-07-13T03:46:47;13.43;;;3.28;;
59607;SDS011;45426;44.726;10.390;2023-07-13T03:49:13;10.05;;;3.10;;
59607;SDS011;45426;44.726;10.390;2023-07-13T03:51:38;9.25;;;2.67;;
59607;SDS011;45426;44.726;10.390;2023-07-13T03:54:04;9.82;;;3.10;;
59607;SDS011;45426;44.726;10.390;2023-07-13T03:56:30;11.63;;;2.90;;
59607;SDS011;45426;44.726;10.390;2023-07-13T03:58:57;10.50;;;3.00;;
59607;SDS011;45426;44.726;10.390;2023-07-13T04:01:23;8.65;;;2.83;;
59607;SDS011;45426;44.726;10.390;2023-07-13T04:03:50;10.40;;;3.28;;
59607;SDS011;45426;44.726;10.390;2023-07-13T04:06:18;13.80;;;3.22;;
59607;SDS011;45426;44.726;10.390;2023-07-13T04:08:56;11.38;;;2.92;;
59607;SDS011;45426;44.726;10.390;2023-07-13T04:11:25;7.50;;;2.90;;
59607;SDS011;45426;44.726;10.390;2023-07-13T04:13:53;11.95;;;3.50;;
59607;SDS011;45426;44.726;10.390;2023-07-13T04:16:19;6.28;;;2.85;;
59607;SDS011;45426;44.726;10.390;2023-07-13T04:18:46;5.70;;;3.20;;
59607;SDS011;45426;44.726;10.390;2023-07-13T04:21:12;6.68;;;3.10;;
59607;SDS011;45426;44.726;10.390;2023-07-13T04:23:38;8.63;;;3.10;;
59607;SDS011;45426;44.726;10.390;2023-07-13T04:26:04;6.90;;;3.33;;
59607;SDS011;45426;44.726;10.390;2023-07-13T04:28:30;9.77;;;3.45;;
59607;SDS011;45426;44.726;10.390;2023-07-13T04:30:56;10.18;;;3.83;;
59607;SDS011;45426;44.726;10.390;2023-07-13T04:33:22;12.43;;;4.20;;
59607;SDS011;45426;44.726;10.390;2023-07-13T04:35:51;8.27;;;3.88;;
59607;SDS011;45426;44.726;10.390;2023-07-13T04:38:21;14.50;;;4.15;;
59607;SDS011;45426;44.726;10.390;2023-07-13T04:40:53;12.32;;;3.92;;
59607;SDS011;45426;44.726;10.390;2023-07-13T04:43:20;10.77;;;3.90;;
59607;SDS011;45426;44.726;10.390;2023-07-13T04:45:46;11.43;;;3.53;;
59607;SDS011;45426;44.726;10.390;2023-07-13T04:48:11;13.30;;;3.90;;
59607;SDS011;45426;44.726;10.390;2023-07-13T04:50:40;9.75;;;3.50;;
59607;SDS011;45426;44.726;10.390;2023-07-13T04:53:05;13.20;;;4.18;;
59607;SDS011;45426;44.726;10.390;2023-07-13T04:55:33;9.02;;;3.95;;
59607;SDS011;45426;44.726;10.390;2023-07-13T04:57:58;10.40;;;4.05;;
59607;SDS011;45426;44.726;10.390;2023-07-13T05:00:24;9.93;;;4.10;;
59607;SDS011;45426;44.726;10.390;2023-07-13T05:02:51;10.00;;;4.40;;
59607;SDS011;45426;44.726;10.390;2023-07-13T05:05:16;8.07;;;4.20;;
59607;SDS011;45426;44.726;10.390;2023-07-13T05:07:42;13.15;;;3.90;;
59607;SDS011;45426;44.726;10.390;2023-07-13T05:10:07;10.10;;;4.35;;
59607;SDS011;45426;44.726;10.390;2023-07-13T05:12:34;11.52;;;4.22;;
59607;SDS011;45426;44.726;10.390;2023-07-13T05:14:59;12.95;;;4.07;;
59607;SDS011;45426;44.726;10.390;2023-07-13T05:17:25;15.48;;;4.53;;
59607;SDS011;45426;44.726;10.390;2023-07-13T05:19:50;14.07;;;3.75;;
59607;SDS011;45426;44.726;10.390;2023-07-13T05:22:16;7.97;;;3.58;;
59607;SDS011;45426;44.726;10.390;2023-07-13T05:24:41;11.07;;;3.53;;
59607;SDS011;45426;44.726;10.390;2023-07-13T05:27:06;10.48;;;3.55;;
59607;SDS011;45426;44.726;10.390;2023-07-13T05:29:32;11.18;;;3.50;;
59607;SDS011;45426;44.726;10.390;2023-07-13T05:31:57;7.38;;;3.50;;
59607;SDS011;45426;44.726;10.390;2023-07-13T05:34:23;8.25;;;3.38;;
59607;SDS011;45426;44.726;10.390;2023-07-13T05:36:49;9.98;;;4.07;;
59607;SDS011;45426;44.726;10.390;2023-07-13T05:39:14;8.80;;;3.40;;
59607;SDS011;45426;44.726;10.390;2023-07-13T05:41:40;9.50;;;3.20;;
59607;SDS011;45426;44.726;10.390;2023-07-13T05:44:06;10.88;;;3.47;;
59607;SDS011;45426;44.726;10.390;2023-07-13T05:46:32;9.98;;;3.22;;
59607;SDS011;45426;44.726;10.390;2023-07-13T05:48:57;10.10;;;3.00;;
59607;SDS011;45426;44.726;10.390;2023-07-13T05:51:23;9.68;;;2.88;;
59607;SDS011;45426;44.726;10.390;2023-07-13T05:53:48;6.22;;;2.70;;
59607;SDS011;45426;44.726;10.390;2023-07-13T05:56:13;7.30;;;2.90;;
59607;SDS011;45426;44.726;10.390;2023-07-13T05:58:39;5.18;;;2.55;;
59607;SDS011;45426;44.726;10.390;2023-07-13T06:01:05;7.65;;;2.63;;
59607;SDS011;45426;44.726;10.390;2023-07-13T06:03:33;6.40;;;2.85;;
59607;SDS011;45426;44.726;10.390;2023-07-13T06:05:59;6.80;;;2.80;;
59607;SDS011;45426;44.726;10.390;2023-07-13T06:08:28;5.80;;;2.83;;
59607;SDS011;45426;44.726;10.390;2023-07-13T06:10:53;7.28;;;2.80;;
59607;SDS011;45426;44.726;10.390;2023-07-13T06:13:19;9.20;;;3.00;;
59607;SDS011;45426;44.726;10.390;2023-07-13T06:15:48;5.95;;;2.90;;
59607;SDS011;45426;44.726;10.390;2023-07-13T06:18:14;8.32;;;3.17;;
59607;SDS011;45426;44.726;10.390;2023-07-13T06:20:40;8.52;;;2.95;;
59607;SDS011;45426;44.726;10.390;2023-07-13T06:23:05;7.38;;;2.80;;
59607;SDS011;45426;44.726;10.390;2023-07-13T06:25:33;6.28;;;3.00;;
59607;SDS011;45426;44.726;10.390;2023-07-13T06:27:59;10.25;;;2.88;;
59607;SDS011;45426;44.726;10.390;2023-07-13T06:30:25;9.52;;;2.72;;
59607;SDS011;45426;44.726;10.390;2023-07-13T06:32:51;13.70;;;3.00;;
59607;SDS011;45426;44.726;10.390;2023-07-13T06:35:17;14.43;;;3.28;;
59607;SDS011;45426;44.726;10.390;2023-07-13T06:37:46;9.00;;;3.00;;
59607;SDS011;45426;44.726;10.390;2023-07-13T06:40:12;7.00;;;2.90;;
59607;SDS011;45426;44.726;10.390;2023-07-13T06:42:43;7.30;;;3.13;;
59607;SDS011;45426;44.726;10.390;2023-07-13T06:45:11;12.07;;;3.10;;
59607;SDS011;45426;44.726;10.390;2023-07-13T06:47:36;10.32;;;2.88;;
59607;SDS011;45426;44.726;10.390;2023-07-13T08:09:05;11.90;;;4.00;;
59607;SDS011;45426;44.726;10.390;2023-07-13T08:12:14;14.80;;;4.43;;
59607;SDS011;45426;44.726;10.390;2023-07-13T08:15:01;14.20;;;4.70;;
59607;SDS011;45426;44.726;10.390;2023-07-13T08:17:33;12.20;;;4.95;;
59607;SDS011;45426;44.726;10.390;2023-07-13T08:20:06;19.65;;;5.03;;
59607;SDS011;45426;44.726;10.390;2023-07-13T08:25:27;11.95;;;5.18;;
59607;SDS011;45426;44.726;10.390;2023-07-13T08:27:52;14.95;;;5.25;;
59607;SDS011;45426;44.726;10.390;2023-07-13T08:30:18;16.75;;;4.82;;
59607;SDS011;45426;44.726;10.390;2023-07-13T08:32:43;15.90;;;4.72;;
59607;SDS011;45426;44.726;10.390;2023-07-13T08:35:09;11.77;;;4.68;;
59607;SDS011;45426;44.726;10.390;2023-07-13T08:37:35;13.88;;;5.10;;
59607;SDS011;45426;44.726;10.390;2023-07-13T08:53:36;14.20;;;5.45;;
59607;SDS011;45426;44.726;10.390;2023-07-13T08:56:11;13.10;;;5.75;;
59607;SDS011;45426;44.726;10.390;2023-07-13T08:58:42;13.20;;;6.50;;
59607;SDS011;45426;44.726;10.390;2023-07-13T09:01:13;12.18;;;5.50;;
59607;SDS011;45426;44.726;10.390;2023-07-13T09:03:55;15.95;;;5.65;;
59607;SDS011;45426;44.726;10.390;2023-07-13T09:15:29;17.70;;;6.30;;
59607;SDS011;45426;44.726;10.390;2023-07-13T09:22:01;16.52;;;7.45;;
59607;SDS011;45426;44.726;10.390;2023-07-13T09:30:59;16.75;;;5.97;;
59607;SDS011;45426;44.726;10.390;2023-07-13T09:33:38;14.15;;;5.57;;
59607;SDS011;45426;44.726;10.390;2023-07-13T09:36:24;14.20;;;4.88;;
59607;SDS011;45426;44.726;10.390;2023-07-13T09:39:13;9.85;;;4.95;;
59607;SDS011;45426;44.726;10.390;2023-07-13T09:52:24;8.73;;;4.80;;
59607;SDS011;45426;44.726;10.390;2023-07-13T09:55:04;11.50;;;5.32;;
59607;SDS011;45426;44.726;10.390;2023-07-13T10:01:40;11.27;;;5.03;;
59607;SDS011;45426;44.726;10.390;2023-07-13T10:39:51;13.07;;;4.97;;
59607;SDS011;45426;44.726;10.390;2023-07-13T10:44:58;13.18;;;4.82;;
59607;SDS011;45426;44.726;10.390;2023-07-13T10:47:24;10.73;;;4.05;;
59607;SDS011;45426;44.726;10.390;2023-07-13T10:49:54;13.48;;;4.50;;
59607;SDS011;45426;44.726;10.390;2023-07-13T10:56:43;11.38;;;4.80;;
59607;SDS011;45426;44.726;10.390;2023-07-13T11:10:52;9.05;;;4.32;;
59607;SDS011;45426;44.726;10.390;2023-07-13T11:13:37;10.75;;;4.47;;
59607;SDS011;45426;44.726;10.390;2023-07-13T11:16:14;13.52;;;4.82;;
59607;SDS011;45426;44.726;10.390;2023-07-13T11:24:52;10.02;;;4.22;;
59607;SDS011;45426;44.726;10.390;2023-07-13T11:30:06;14.05;;;4.88;;
59607;SDS011;45426;44.726;10.390;2023-07-13T11:41:49;12.18;;;4.50;;
59607;SDS011;45426;44.726;10.390;2023-07-13T11:44:18;11.07;;;4.40;;
59607;SDS011;45426;44.726;10.390;2023-07-13T11:46:48;13.65;;;4.75;;
59607;SDS011;45426;44.726;10.390;2023-07-13T11:49:20;13.30;;;4.82;;
59607;SDS011;45426;44.726;10.390;2023-07-13T11:51:52;12.57;;;4.78;;
59607;SDS011;45426;44.726;10.390;2023-07-13T11:56:47;10.80;;;4.20;;
59607;SDS011;45426;44.726;10.390;2023-07-13T11:59:14;12.23;;;4.10;;
59607;SDS011;45426;44.726;10.390;2023-07-13T12:01:46;16.02;;;4.72;;
59607;SDS011;45426;44.726;10.390;2023-07-13T12:04:35;10.13;;;4.47;;
59607;SDS011;45426;44.726;10.390;2023-07-13T12:07:11;10.50;;;4.00;;
59607;SDS011;45426;44.726;10.390;2023-07-13T12:09:42;15.65;;;4.05;;
59607;SDS011;45426;44.726;10.390;2023-07-13T12:12:11;11.98;;;4.40;;
59607;SDS011;45426;44.726;10.390;2023-07-13T12:14:38;13.35;;;4.40;;
59607;SDS011;45426;44.726;10.390;2023-07-13T12:17:09;13.73;;;4.10;;
59607;SDS011;45426;44.726;10.390;2023-07-13T12:19:43;12.00;;;4.50;;
59607;SDS011;45426;44.726;10.390;2023-07-13T12:22:11;10.70;;;4.88;;
59607;SDS011;45426;44.726;10.390;2023-07-13T12:24:40;13.35;;;4.57;;
59607;SDS011;45426;44.726;10.390;2023-07-13T12:27:14;11.75;;;4.55;;
59607;SDS011;45426;44.726;10.390;2023-07-13T12:30:02;11.85;;;3.70;;
59607;SDS011;45426;44.726;10.390;2023-07-13T12:32:30;10.77;;;4.10;;
59607;SDS011;45426;44.726;10.390;2023-07-13T12:34:57;13.60;;;4.53;;
59607;SDS011;45426;44.726;10.390;2023-07-13T12:37:38;11.32;;;4.10;;
59607;SDS011;45426;44.726;10.390;2023-07-13T12:40:12;11.82;;;4.07;;
59607;SDS011;45426;44.726;10.390;2023-07-13T12:42:40;9.77;;;3.90;;
59607;SDS011;45426;44.726;10.390;2023-07-13T12:47:43;10.48;;;3.90;;
59607;SDS011;45426;44.726;10.390;2023-07-13T12:50:14;8.90;;;4.00;;
59607;SDS011;45426;44.726;10.390;2023-07-13T12:52:42;10.20;;;3.80;;
59607;SDS011;45426;44.726;10.390;2023-07-13T12:55:14;10.75;;;4.03;;
59607;SDS011;45426;44.726;10.390;2023-07-13T12:57:45;12.20;;;3.92;;
59607;SDS011;45426;44.726;10.390;2023-07-13T13:00:23;11.73;;;4.22;;
59607;SDS011;45426;44.726;10.390;2023-07-13T13:02:53;9.57;;;3.88;;
59607;SDS011;45426;44.726;10.390;2023-07-13T13:05:21;8.20;;;3.50;;
59607;SDS011;45426;44.726;10.390;2023-07-13T13:07:48;9.65;;;3.58;;
59607;SDS011;45426;44.726;10.390;2023-07-13T13:10:14;9.32;;;3.40;;
59607;SDS011;45426;44.726;10.390;2023-07-13T13:12:40;10.18;;;3.58;;
59607;SDS011;45426;44.726;10.390;2023-07-13T13:15:09;8.85;;;3.35;;
59607;SDS011;45426;44.726;10.390;2023-07-13T13:17:36;8.85;;;3.50;;
59607;SDS011;45426;44.726;10.390;2023-07-13T13:20:16;9.00;;;3.80;;
59607;SDS011;45426;44.726;10.390;2023-07-13T13:22:43;12.18;;;3.70;;
59607;SDS011;45426;44.726;10.390;2023-07-13T13:25:10;19.52;;;4.63;;
59607;SDS011;45426;44.726;10.390;2023-07-13T13:27:36;12.40;;;3.67;;
59607;SDS011;45426;44.726;10.390;2023-07-13T13:30:02;11.18;;;4.00;;
59607;SDS011;45426;44.726;10.390;2023-07-13T13:32:28;8.48;;;3.50;;
59607;SDS011;45426;44.726;10.390;2023-07-13T13:34:53;12.18;;;3.63;;
59607;SDS011;45426;44.726;10.390;2023-07-13T13:37:22;10.00;;;3.75;;
59607;SDS011;45426;44.726;10.390;2023-07-13T13:39:50;10.40;;;3.67;;
59607;SDS011;45426;44.726;10.390;2023-07-13T13:42:17;10.40;;;3.70;;
59607;SDS011;45426;44.726;10.390;2023-07-13T13:44:42;8.65;;;3.40;;
59607;SDS011;45426;44.726;10.390;2023-07-13T13:47:21;13.35;;;3.92;;
59607;SDS011;45426;44.726;10.390;2023-07-13T13:49:54;8.13;;;3.53;;
59607;SDS011;45426;44.726;10.390;2023-07-13T13:52:20;8.82;;;3.55;;
59607;SDS011;45426;44.726;10.390;2023-07-13T13:54:45;12.80;;;3.67;;
59607;SDS011;45426;44.726;10.390;2023-07-13T13:57:11;9.23;;;3.65;;
59607;SDS011;45426;44.726;10.390;2023-07-13T13:59:37;10.25;;;3.85;;
59607;SDS011;45426;44.726;10.390;2023-07-13T14:02:11;14.00;;;3.97;;
59607;SDS011;45426;44.726;10.390;2023-07-13T14:04:47;11.93;;;3.83;;
59607;SDS011;45426;44.726;10.390;2023-07-13T14:07:15;9.65;;;3.53;;
59607;SDS011;45426;44.726;10.390;2023-07-13T14:09:41;8.10;;;3.58;;
59607;SDS011;45426;44.726;10.390;2023-07-13T14:12:08;11.27;;;4.20;;
59607;SDS011;45426;44.726;10.390;2023-07-13T14:14:36;12.13;;;4.55;;
59607;SDS011;45426;44.726;10.390;2023-07-13T14:17:03;12.30;;;3.95;;
59607;SDS011;45426;44.726;10.390;2023-07-13T14:19:29;9.45;;;3.33;;
59607;SDS011;45426;44.726;10.390;2023-07-13T14:21:54;8.73;;;3.60;;
59607;SDS011;45426;44.726;10.390;2023-07-13T14:24:20;9.18;;;3.70;;
59607;SDS011;45426;44.726;10.390;2023-07-13T14:26:46;9.63;;;3.97;;
59607;SDS011;45426;44.726;10.390;2023-07-13T14:29:16;9.63;;;3.67;;
59607;SDS011;45426;44.726;10.390;2023-07-13T14:31:43;10.55;;;3.75;;
59607;SDS011;45426;44.726;10.390;2023-07-13T14:34:10;10.73;;;3.67;;
59607;SDS011;45426;44.726;10.390;2023-07-13T14:36:46;8.45;;;3.75;;
59607;SDS011;45426;44.726;10.390;2023-07-13T14:39:15;12.07;;;3.70;;
59607;SDS011;45426;44.726;10.390;2023-07-13T14:41:43;11.15;;;3.70;;
59607;SDS011;45426;44.726;10.390;2023-07-13T14:44:13;10.98;;;3.95;;
59607;SDS011;45426;44.726;10.390;2023-07-13T14:46:40;12.57;;;3.97;;
59607;SDS011;45426;44.726;10.390;2023-07-13T14:51:39;13.40;;;4.32;;
59607;SDS011;45426;44.726;10.390;2023-07-13T14:54:05;11.57;;;4.28;;
59607;SDS011;45426;44.726;10.390;2023-07-13T14:56:33;13.57;;;4.25;;
59607;SDS011;45426;44.726;10.390;2023-07-13T14:58:59;15.50;;;4.10;;
59607;SDS011;45426;44.726;10.390;2023-07-13T15:01:30;11.63;;;4.13;;
59607;SDS011;45426;44.726;10.390;2023-07-13T15:03:56;11.55;;;4.15;;
59607;SDS011;45426;44.726;10.390;2023-07-13T15:06:23;11.70;;;4.45;;
59607;SDS011;45426;44.726;10.390;2023-07-13T15:08:48;12.23;;;4.15;;
59607;SDS011;45426;44.726;10.390;2023-07-13T15:11:16;12.45;;;4.40;;
59607;SDS011;45426;44.726;10.390;2023-07-13T15:13:42;15.00;;;4.97;;
59607;SDS011;45426;44.726;10.390;2023-07-13T15:18:49;10.88;;;4.70;;
59607;SDS011;45426;44.726;10.390;2023-07-13T15:21:21;14.27;;;4.57;;
59607;SDS011;45426;44.726;10.390;2023-07-13T15:23:49;11.93;;;4.38;;
59607;SDS011;45426;44.726;10.390;2023-07-13T15:26:16;13.65;;;4.85;;
59607;SDS011;45426;44.726;10.390;2023-07-13T15:28:43;13.88;;;4.78;;
59607;SDS011;45426;44.726;10.390;2023-07-13T15:33:49;11.48;;;4.90;;
59607;SDS011;45426;44.726;10.390;2023-07-13T15:36:17;14.73;;;4.75;;
59607;SDS011;45426;44.726;10.390;2023-07-13T15:38:46;12.73;;;5.38;;
59607;SDS011;45426;44.726;10.390;2023-07-13T15:41:25;17.38;;;4.90;;
59607;SDS011;45426;44.726;10.390;2023-07-13T15:43:54;15.70;;;4.75;;
59607;SDS011;45426;44.726;10.390;2023-07-13T15:46:30;10.15;;;4.75;;
59607;SDS011;45426;44.726;10.390;2023-07-13T15:48:56;14.55;;;4.53;;
59607;SDS011;45426;44.726;10.390;2023-07-13T15:51:25;15.63;;;5.07;;
59607;SDS011;45426;44.726;10.390;2023-07-13T15:53:53;12.05;;;4.82;;
59607;SDS011;45426;44.726;10.390;2023-07-13T15:56:25;11.10;;;3.90;;
59607;SDS011;45426;44.726;10.390;2023-07-13T15:58:52;9.70;;;3.92;;
59607;SDS011;45426;44.726;10.390;2023-07-13T16:01:19;10.60;;;3.65;;
59607;SDS011;45426;44.726;10.390;2023-07-13T16:03:46;10.60;;;4.10;;
59607;SDS011;45426;44.726;10.390;2023-07-13T16:06:34;10.48;;;3.40;;
59607;SDS011;45426;44.726;10.390;2023-07-13T16:09:00;8.43;;;3.67;;
59607;SDS011;45426;44.726;10.390;2023-07-13T16:11:28;9.88;;;3.28;;
59607;SDS011;45426;44.726;10.390;2023-07-13T16:13:58;9.32;;;3.53;;
59607;SDS011;45426;44.726;10.390;2023-07-13T16:16:28;7.97;;;3.47;;
59607;SDS011;45426;44.726;10.390;2023-07-13T16:18:56;8.48;;;3.35;;
59607;SDS011;45426;44.726;10.390;2023-07-13T16:21:24;9.77;;;3.65;;
59607;SDS011;45426;44.726;10.390;2023-07-13T16:23:53;9.65;;;3.83;;
59607;SDS011;45426;44.726;10.390;2023-07-13T16:26:27;13.50;;;4.32;;
59607;SDS011;45426;44.726;10.390;2023-07-13T16:28:53;7.55;;;3.22;;
59607;SDS011;45426;44.726;10.390;2023-07-13T16:31:25;10.00;;;3.65;;
59607;SDS011;45426;44.726;10.390;2023-07-13T16:33:52;8.65;;;3.33;;
59607;SDS011;45426;44.726;10.390;2023-07-13T16:36:18;8.95;;;3.50;;
59607;SDS011;45426;44.726;10.390;2023-07-13T16:38:44;8.40;;;3.30;;
59607;SDS011;45426;44.726;10.390;2023-07-13T16:41:10;11.15;;;3.85;;
59607;SDS011;45426;44.726;10.390;2023-07-13T16:43:35;9.25;;;3.70;;
59607;SDS011;45426;44.726;10.390;2023-07-13T16:46:01;9.70;;;3.63;;
59607;SDS011;45426;44.726;10.390;2023-07-13T16:48:30;12.82;;;3.72;;
59607;SDS011;45426;44.726;10.390;2023-07-13T16:50:56;9.00;;;3.78;;
59607;SDS011;45426;44.726;10.390;2023-07-13T16:53:24;10.85;;;4.22;;
59607;SDS011;45426;44.726;10.390;2023-07-13T16:55:51;12.88;;;4.28;;
59607;SDS011;45426;44.726;10.390;2023-07-13T16:58:20;10.95;;;3.70;;
59607;SDS011;45426;44.726;10.390;2023-07-13T17:00:50;9.57;;;3.33;;
59607;SDS011;45426;44.726;10.390;2023-07-13T17:03:17;11.20;;;3.60;;
59607;SDS011;45426;44.726;10.390;2023-07-13T17:05:44;9.38;;;3.63;;
59607;SDS011;45426;44.726;10.390;2023-07-13T17:10:50;12.20;;;3.80;;
59607;SDS011;45426;44.726;10.390;2023-07-13T17:13:19;11.07;;;3.90;;
59607;SDS011;45426;44.726;10.390;2023-07-13T17:15:46;12.23;;;3.95;;
59607;SDS011;45426;44.726;10.390;2023-07-13T17:18:22;10.77;;;4.10;;
59607;SDS011;45426;44.726;10.390;2023-07-13T17:20:50;11.35;;;4.30;;
59607;SDS011;45426;44.726;10.390;2023-07-13T17:23:20;12.40;;;4.35;;
59607;SDS011;45426;44.726;10.390;2023-07-13T17:25:49;11.80;;;4.20;;
59607;SDS011;45426;44.726;10.390;2023-07-13T17:28:17;9.07;;;3.92;;
59607;SDS011;45426;44.726;10.390;2023-07-13T17:30:46;9.85;;;4.30;;
59607;SDS011;45426;44.726;10.390;2023-07-13T17:33:20;10.18;;;3.95;;
59607;SDS011;45426;44.726;10.390;2023-07-13T17:35:48;11.27;;;4.60;;
59607;SDS011;45426;44.726;10.390;2023-07-13T17:38:14;11.52;;;3.92;;
59607;SDS011;45426;44.726;10.390;2023-07-13T17:40:39;9.52;;;4.47;;
59607;SDS011;45426;44.726;10.390;2023-07-13T17:43:05;12.80;;;4.60;;
59607;SDS011;45426;44.726;10.390;2023-07-13T17:45:36;8.27;;;3.70;;
59607;SDS011;45426;44.726;10.390;2023-07-13T17:48:01;8.38;;;3.28;;
59607;SDS011;45426;44.726;10.390;2023-07-13T17:50:36;12.55;;;3.22;;
59607;SDS011;45426;44.726;10.390;2023-07-13T17:53:46;9.90;;;3.20;;
59607;SDS011;45426;44.726;10.390;2023-07-13T17:56:52;6.53;;;3.30;;
59607;SDS011;45426;44.726;10.390;2023-07-13T17:59:50;11.40;;;3.40;;
59607;SDS011;45426;44.726;10.390;2023-07-13T18:02:26;8.90;;;3.30;;
59607;SDS011;45426;44.726;10.390;2023-07-13T18:05:11;8.98;;;3.10;;
59607;SDS011;45426;44.726;10.390;2023-07-13T18:07:39;7.90;;;3.28;;
59607;SDS011;45426;44.726;10.390;2023-07-13T18:14:11;9.40;;;3.60;;
59607;SDS011;45426;44.726;10.390;2023-07-13T18:17:01;8.13;;;2.92;;
59607;SDS011;45426;44.726;10.390;2023-07-13T18:19:37;10.93;;;3.70;;